createdAt,value
2018-03-11T00:01:19.314Z,55.80
2018-03-11T00:03:46.797Z,55.53
2018-03-11T00:06:14.264Z,51.37
2018-03-11T00:08:41.772Z,51.10
2018-03-11T00:11:09.281Z,53.70
2018-03-11T00:13:36.783Z,52.60
2018-03-11T00:16:05.768Z,56.40
2018-03-11T00:18:33.265Z,57.67
2018-03-11T00:21:01.508Z,58.23
2018-03-11T00:23:29.365Z,54.57
2018-03-11T00:25:56.829Z,57.53
2018-03-11T00:28:24.416Z,57.07
2018-03-11T00:30:52.006Z,57.67
2018-03-11T00:33:19.502Z,57.00
2018-03-11T00:35:47.781Z,61.77
2018-03-11T00:38:15.287Z,61.90
2018-03-11T00:40:42.778Z,61.37
2018-03-11T00:43:10.389Z,62.93
2018-03-11T00:45:37.843Z,62.63
2018-03-11T00:48:05.416Z,58.47
2018-03-11T00:50:32.897Z,62.70
2018-03-11T00:53:00.390Z,62.37
2018-03-11T00:55:27.916Z,56.47
2018-03-11T00:57:56.144Z,58.07
2018-03-11T01:00:24.389Z,53.33
2018-03-11T01:02:52.720Z,53.17
2018-03-11T01:05:20.188Z,59.07
2018-03-11T01:07:48.537Z,52.30
2018-03-11T01:10:16.009Z,53.33
2018-03-11T01:12:43.507Z,49.80
2018-03-11T01:15:11.005Z,53.57
2018-03-11T01:17:39.254Z,51.77
2018-03-11T01:20:06.768Z,50.30
2018-03-11T01:22:34.241Z,53.40
2018-03-11T01:25:01.742Z,58.60
2018-03-11T01:27:29.217Z,64.13
2018-03-11T01:29:56.713Z,69.93
2018-03-11T01:32:24.293Z,61.20
2018-03-11T01:34:51.773Z,61.97
2018-03-11T01:37:19.282Z,65.73
2018-03-11T01:39:47.562Z,65.40
2018-03-11T01:42:15.033Z,78.20
2018-03-11T01:44:42.496Z,78.37
2018-03-11T01:47:10.728Z,71.73
2018-03-11T01:49:38.251Z,68.60
2018-03-11T01:52:05.722Z,67.87
2018-03-11T01:54:33.226Z,71.13
2018-03-11T01:57:00.699Z,63.47
2018-03-11T01:59:28.173Z,62.70
2018-03-11T02:01:55.648Z,66.50
2018-03-11T02:04:23.154Z,61.57
2018-03-11T02:06:50.639Z,61.67
2018-03-11T02:09:18.140Z,65.30
2018-03-11T02:11:45.606Z,64.97
2018-03-11T02:14:13.072Z,59.20
2018-03-11T02:16:40.567Z,57.93
2018-03-11T02:19:08.051Z,57.57
2018-03-11T02:21:35.548Z,57.50
2018-03-11T02:26:38.808Z,56.17
2018-03-11T02:29:06.304Z,54.27
2018-03-11T02:31:34.592Z,51.70
2018-03-11T02:34:02.171Z,61.07
2018-03-11T02:36:29.646Z,54.23
2018-03-11T02:38:57.158Z,66.07
2018-03-11T02:41:24.726Z,57.80
2018-03-11T02:43:52.313Z,53.50
2018-03-11T02:46:19.828Z,58.53
2018-03-11T02:48:47.298Z,60.00
2018-03-11T02:51:14.801Z,60.20
2018-03-11T02:53:42.300Z,64.60
2018-03-11T02:56:10.558Z,65.27
2018-03-11T02:58:38.028Z,65.17
2018-03-11T03:01:05.513Z,69.50
2018-03-11T03:03:33.005Z,72.67
2018-03-11T03:06:00.475Z,65.67
2018-03-11T03:08:27.955Z,69.30
2018-03-11T03:10:55.490Z,63.53
2018-03-11T03:13:22.992Z,58.50
2018-03-11T03:15:51.229Z,55.70
2018-03-11T03:18:18.737Z,50.47
2018-03-11T03:20:46.235Z,39.90
2018-03-11T03:23:13.726Z,37.23
2018-03-11T03:25:41.294Z,44.97
2018-03-11T03:28:08.769Z,39.80
2018-03-11T03:30:36.275Z,42.70
2018-03-11T03:33:03.865Z,42.47
2018-03-11T03:35:31.322Z,41.97
2018-03-11T03:37:58.794Z,36.20
2018-03-11T03:40:26.315Z,36.77
2018-03-11T03:42:53.814Z,40.17
2018-03-11T03:45:21.289Z,34.57
2018-03-11T03:47:48.796Z,94.03
2018-03-11T03:50:16.372Z,62.73
2018-03-11T03:52:43.951Z,43.27
2018-03-11T03:55:11.432Z,39.47
2018-03-11T03:57:38.902Z,37.90
2018-03-11T04:00:09.417Z,42.57
2018-03-11T04:02:36.883Z,44.07
2018-03-11T04:05:04.392Z,46.07
2018-03-11T04:07:31.917Z,54.30
2018-03-11T04:09:59.428Z,46.20
2018-03-11T04:12:26.897Z,53.43
2018-03-11T04:14:54.366Z,59.90
2018-03-11T04:17:21.897Z,54.33
2018-03-11T04:19:49.458Z,44.30
2018-03-11T04:22:16.922Z,40.23
2018-03-11T04:24:44.392Z,61.97
2018-03-11T04:27:11.861Z,51.33
2018-03-11T04:29:39.324Z,46.00
2018-03-11T04:32:07.568Z,69.53
2018-03-11T04:34:35.092Z,171.67
2018-03-11T04:37:02.577Z,112.83
2018-03-11T04:39:30.056Z,133.93
2018-03-11T04:41:57.531Z,104.17
2018-03-11T04:44:25.007Z,73.30
2018-03-11T04:46:52.483Z,60.87
2018-03-11T04:49:19.953Z,47.33
2018-03-11T04:51:47.430Z,38.60
2018-03-11T04:54:15.048Z,36.20
2018-03-11T04:56:43.281Z,35.47
2018-03-11T04:59:10.775Z,37.23
2018-03-11T05:01:38.248Z,67.13
2018-03-11T05:04:05.720Z,140.00
2018-03-11T05:06:33.193Z,76.10
2018-03-11T05:09:00.666Z,128.53
2018-03-11T05:11:28.910Z,187.17
2018-03-11T05:13:56.388Z,236.20
2018-03-11T05:16:24.863Z,181.27
2018-03-11T05:18:52.408Z,176.37
2018-03-11T05:21:19.890Z,143.70
2018-03-11T05:23:47.358Z,152.73
2018-03-11T05:26:14.814Z,191.77
2018-03-11T05:28:42.291Z,206.77
2018-03-11T05:31:09.755Z,237.83
2018-03-11T05:33:37.234Z,220.37
2018-03-11T05:36:05.466Z,213.20
2018-03-11T05:38:32.946Z,211.17
2018-03-11T05:41:01.194Z,202.67
2018-03-11T05:43:28.660Z,172.07
2018-03-11T05:45:56.130Z,112.90
2018-03-11T05:48:23.616Z,62.87
2018-03-11T05:50:51.080Z,53.57
2018-03-11T05:53:19.324Z,69.90
2018-03-11T05:55:46.937Z,59.77
2018-03-11T05:58:14.400Z,50.90
2018-03-11T06:00:41.867Z,38.70
2018-03-11T06:03:09.376Z,41.07
2018-03-11T06:05:36.846Z,40.43
2018-03-11T06:08:04.388Z,38.73
2018-03-11T06:10:32.060Z,46.57
2018-03-11T06:12:59.498Z,49.93
2018-03-11T06:15:26.989Z,49.33
2018-03-11T06:17:54.573Z,44.73
2018-03-11T06:20:22.106Z,44.73
2018-03-11T06:22:50.327Z,38.30
2018-03-11T06:25:17.795Z,36.23
2018-03-11T06:27:45.318Z,34.40
2018-03-11T06:30:12.774Z,41.20
2018-03-11T06:32:40.238Z,31.17
2018-03-11T06:35:07.724Z,28.13
2018-03-11T06:37:35.214Z,33.87
2018-03-11T06:40:03.652Z,31.47
2018-03-11T06:42:31.125Z,29.93
2018-03-11T06:44:58.632Z,29.50
2018-03-11T06:47:26.102Z,27.67
2018-03-11T06:49:53.581Z,34.13
2018-03-11T06:52:21.071Z,32.03
2018-03-11T06:54:48.552Z,26.27
2018-03-11T06:57:16.202Z,28.07
2018-03-11T06:59:43.670Z,28.77
2018-03-11T07:02:12.041Z,28.23
2018-03-11T07:04:40.350Z,28.83
2018-03-11T07:07:07.836Z,31.53
2018-03-11T07:09:36.114Z,27.60
2018-03-11T07:14:13.878Z,30.67
2018-03-11T07:16:41.500Z,27.83
2018-03-11T07:19:09.057Z,28.27
2018-03-11T07:21:36.545Z,31.67
2018-03-11T07:24:04.059Z,27.67
2018-03-11T07:26:31.516Z,26.67
2018-03-11T07:28:58.997Z,26.10
2018-03-11T07:31:26.469Z,25.27
2018-03-11T07:33:54.032Z,25.50
2018-03-11T07:36:21.596Z,25.90
2018-03-11T07:38:49.077Z,24.20
2018-03-11T07:41:17.308Z,22.07
2018-03-11T07:43:45.086Z,23.13
2018-03-11T07:46:12.550Z,21.33
2018-03-11T07:48:40.024Z,19.10
2018-03-11T07:51:07.505Z,19.13
2018-03-11T07:53:35.013Z,17.60
2018-03-11T07:56:02.501Z,17.47
2018-03-11T07:58:29.967Z,17.03
2018-03-11T08:00:57.448Z,16.33
2018-03-11T08:03:24.912Z,15.47
2018-03-11T08:05:53.168Z,15.03
2018-03-11T08:08:20.648Z,14.40
2018-03-11T08:10:48.152Z,14.60
2018-03-11T08:13:15.618Z,14.50
2018-03-11T08:15:43.087Z,14.40
2018-03-11T08:18:10.599Z,14.10
2018-03-11T08:20:38.065Z,14.13
2018-03-11T08:23:05.567Z,14.65
2018-03-11T08:25:33.093Z,14.77
2018-03-11T08:28:01.337Z,16.13
2018-03-11T08:30:29.260Z,14.90
2018-03-11T08:32:56.725Z,15.67
2018-03-11T08:35:24.207Z,15.70
2018-03-11T08:37:51.694Z,14.70
2018-03-11T08:40:19.196Z,14.30
2018-03-11T08:42:46.706Z,14.20
2018-03-11T08:45:14.916Z,12.63
2018-03-11T08:47:43.147Z,14.13
2018-03-11T08:50:10.614Z,13.80
2018-03-11T08:52:38.162Z,13.50
2018-03-11T08:55:05.630Z,14.17
2018-03-11T08:57:33.104Z,14.10
2018-03-11T09:00:00.597Z,13.13
2018-03-11T09:02:28.111Z,13.63
2018-03-11T09:04:55.683Z,14.17
2018-03-11T09:07:23.192Z,13.03
2018-03-11T09:09:50.658Z,13.57
2018-03-11T09:12:18.137Z,12.67
2018-03-11T09:14:45.709Z,11.83
2018-03-11T09:17:13.170Z,12.30
2018-03-11T09:19:40.645Z,11.70
2018-03-11T09:22:08.136Z,11.43
2018-03-11T09:24:35.721Z,11.45
2018-03-11T09:27:03.247Z,11.07
2018-03-11T09:29:30.715Z,10.93
2018-03-11T09:31:58.232Z,12.05
2018-03-11T09:34:25.704Z,10.95
2018-03-11T09:36:53.335Z,10.95
2018-03-11T09:39:21.592Z,11.32
2018-03-11T09:41:49.053Z,13.75
2018-03-11T09:44:16.664Z,10.70
2018-03-11T09:46:44.148Z,10.27
2018-03-11T09:49:11.694Z,9.35
2018-03-11T09:51:39.158Z,9.40
2018-03-11T09:54:07.461Z,8.73
2018-03-11T09:56:36.059Z,7.95
2018-03-11T09:59:04.484Z,7.72
2018-03-11T10:01:31.956Z,7.70
2018-03-11T10:04:00.204Z,7.07
2018-03-11T10:06:27.696Z,7.20
2018-03-11T10:08:55.190Z,7.40
2018-03-11T10:11:22.698Z,6.63
2018-03-11T10:13:50.284Z,6.20
2018-03-11T10:16:17.781Z,7.20
2018-03-11T10:18:45.260Z,7.20
2018-03-11T10:21:12.738Z,7.50
2018-03-11T10:23:41.719Z,7.13
2018-03-11T10:26:09.230Z,6.83
2018-03-11T10:28:36.739Z,6.87
2018-03-11T10:31:04.201Z,6.87
2018-03-11T10:33:31.677Z,6.70
2018-03-11T10:35:59.149Z,7.10
2018-03-11T10:38:26.671Z,6.70
2018-03-11T10:40:54.941Z,6.07
2018-03-11T10:43:22.475Z,5.63
2018-03-11T10:45:49.935Z,6.00
2018-03-11T10:48:17.390Z,6.60
2018-03-11T10:50:44.893Z,5.87
2018-03-11T10:53:12.336Z,6.03
2018-03-11T10:55:40.657Z,5.97
2018-03-11T10:58:08.122Z,5.37
2018-03-11T11:00:42.053Z,4.63
2018-03-11T11:03:15.875Z,4.80
2018-03-11T11:05:43.389Z,4.80
2018-03-11T11:08:10.937Z,5.27
2018-03-11T11:10:38.412Z,4.37
2018-03-11T11:13:05.904Z,4.00
2018-03-11T11:15:33.393Z,4.80
2018-03-11T11:18:00.920Z,4.50
2018-03-11T11:20:28.399Z,4.23
2018-03-11T11:22:55.906Z,3.33
2018-03-11T11:25:23.382Z,3.53
2018-03-11T11:27:50.858Z,4.03
2018-03-11T11:30:18.344Z,3.73
2018-03-11T11:32:45.846Z,4.00
2018-03-11T11:35:13.427Z,3.57
2018-03-11T11:37:40.893Z,3.90
2018-03-11T11:40:08.369Z,3.10
2018-03-11T11:42:36.040Z,4.00
2018-03-11T11:45:04.445Z,2.97
2018-03-11T11:47:31.974Z,2.70
2018-03-11T11:49:59.445Z,2.83
2018-03-11T11:52:27.700Z,2.30
2018-03-11T11:54:55.276Z,2.27
2018-03-11T11:57:22.738Z,2.30
2018-03-11T11:59:50.304Z,2.40
2018-03-11T12:02:18.810Z,2.87
2018-03-11T12:04:47.112Z,3.30
2018-03-11T12:07:15.338Z,3.00
2018-03-11T12:09:43.585Z,2.53
2018-03-11T12:12:11.094Z,3.23
2018-03-11T12:14:38.670Z,3.63
2018-03-11T12:17:07.145Z,2.30
2018-03-11T12:19:34.646Z,2.37
2018-03-11T12:22:02.122Z,2.30
2018-03-11T12:24:29.617Z,3.20
2018-03-11T12:26:57.074Z,2.30
2018-03-11T12:29:25.328Z,1.93
2018-03-11T12:31:52.905Z,3.90
2018-03-11T12:34:20.373Z,3.53
2018-03-11T12:36:47.950Z,3.00
2018-03-11T12:39:15.476Z,3.70
2018-03-11T12:41:42.951Z,3.83
2018-03-11T12:44:11.192Z,2.40
2018-03-11T12:46:38.658Z,2.03
2018-03-11T12:49:06.169Z,2.97
2018-03-11T12:51:34.400Z,3.30
2018-03-11T12:54:01.871Z,2.37
2018-03-11T12:56:29.345Z,1.50
2018-03-11T12:58:56.809Z,2.70
2018-03-11T13:01:24.391Z,1.80
2018-03-11T13:03:51.845Z,2.37
2018-03-11T13:06:19.336Z,1.53
2018-03-11T13:08:46.811Z,3.50
2018-03-11T13:11:15.066Z,1.50
2018-03-11T13:13:42.571Z,3.57
2018-03-11T13:16:10.035Z,2.10
2018-03-11T13:18:37.508Z,1.90
2018-03-11T13:21:14.520Z,2.30
2018-03-11T13:23:42.752Z,2.20
2018-03-11T13:26:11.090Z,2.87
2018-03-11T13:28:47.231Z,2.17
2018-03-11T13:31:14.846Z,2.67
2018-03-11T13:33:54.173Z,2.50
2018-03-11T13:36:22.413Z,2.30
2018-03-11T13:39:01.725Z,2.40
2018-03-11T13:41:29.197Z,1.87
2018-03-11T13:43:56.665Z,2.40
2018-03-11T13:46:36.046Z,1.93
2018-03-11T13:49:03.536Z,3.40
2018-03-11T13:51:42.900Z,2.60
2018-03-11T13:54:10.392Z,2.40
2018-03-11T13:56:37.853Z,3.50
2018-03-11T13:59:05.321Z,2.13
2018-03-11T14:01:33.557Z,2.30
2018-03-11T14:04:01.058Z,2.03
2018-03-11T14:06:28.594Z,2.53
2018-03-11T14:08:56.053Z,2.10
2018-03-11T14:11:23.503Z,2.20
2018-03-11T14:13:51.814Z,2.00
2018-03-11T14:16:20.079Z,1.80
2018-03-11T14:18:47.653Z,4.67
2018-03-11T14:21:15.117Z,1.77
2018-03-11T14:23:42.616Z,3.70
2018-03-11T14:26:10.077Z,2.20
2018-03-11T14:28:38.321Z,3.13
2018-03-11T14:31:05.889Z,2.17
2018-03-11T14:33:33.353Z,2.10
2018-03-11T14:36:01.580Z,2.07
2018-03-11T14:38:29.038Z,2.87
2018-03-11T14:40:57.265Z,1.53
2018-03-11T14:43:25.725Z,1.40
2018-03-11T14:45:53.962Z,1.97
2018-03-11T14:48:21.430Z,1.20
2018-03-11T14:50:49.691Z,2.50
2018-03-11T14:53:17.154Z,1.50
2018-03-11T14:55:44.665Z,1.80
2018-03-11T14:58:12.135Z,1.53
2018-03-11T15:00:39.727Z,1.27
2018-03-11T15:03:07.196Z,1.20
2018-03-11T15:05:34.706Z,1.67
2018-03-11T15:08:02.263Z,1.67
2018-03-11T15:10:29.788Z,2.27
2018-03-11T15:12:57.249Z,1.40
2018-03-11T15:15:24.721Z,1.73
2018-03-11T15:17:52.188Z,1.70
2018-03-11T15:20:19.714Z,1.37
2018-03-11T15:22:47.206Z,1.70
2018-03-11T15:25:14.726Z,2.07
2018-03-11T15:27:42.188Z,3.30
2018-03-11T15:30:09.657Z,1.70
2018-03-11T15:32:37.166Z,2.07
2018-03-11T15:35:04.690Z,2.40
2018-03-11T15:37:32.249Z,3.07
2018-03-11T15:39:59.709Z,1.33
2018-03-11T15:42:27.201Z,3.03
2018-03-11T15:44:54.693Z,4.90
2018-03-11T15:47:22.186Z,3.43
2018-03-11T15:49:49.694Z,4.60
2018-03-11T15:52:17.981Z,4.07
2018-03-11T15:54:47.001Z,4.40
2018-03-11T15:57:14.476Z,2.83
2018-03-11T15:59:41.960Z,2.67
2018-03-11T16:02:10.211Z,3.10
2018-03-11T16:04:38.438Z,3.97
2018-03-11T16:07:05.960Z,2.67
2018-03-11T16:09:33.422Z,1.67
2018-03-11T16:12:00.938Z,1.57
2018-03-11T16:14:28.402Z,1.70
2018-03-11T16:16:55.872Z,2.23
2018-03-11T16:19:24.196Z,2.40
2018-03-11T16:21:51.677Z,1.97
2018-03-11T16:24:28.382Z,2.77
2018-03-11T16:26:46.625Z,4.77
2018-03-11T16:29:14.092Z,2.90
2018-03-11T16:31:41.568Z,3.90
2018-03-11T16:34:09.027Z,5.43
2018-03-11T16:36:36.501Z,2.80
2018-03-11T16:39:03.972Z,2.23
2018-03-11T16:41:31.488Z,3.73
2018-03-11T16:43:58.969Z,3.87
2018-03-11T16:46:26.460Z,2.93
2018-03-11T16:48:53.949Z,2.50
2018-03-11T16:51:21.537Z,3.47
2018-03-11T16:53:49.017Z,5.43
2018-03-11T16:56:16.603Z,3.70
2018-03-11T16:58:44.070Z,3.33
2018-03-11T17:01:11.564Z,4.87
2018-03-11T17:03:39.051Z,4.47
2018-03-11T17:06:06.513Z,6.03
2018-03-11T17:08:33.983Z,5.30
2018-03-11T17:11:02.217Z,4.30
2018-03-11T17:13:30.076Z,4.53
2018-03-11T17:15:57.563Z,6.73
2018-03-11T17:18:25.791Z,7.67
2018-03-11T17:20:53.249Z,8.23
2018-03-11T17:23:21.483Z,17.57
2018-03-11T17:25:49.866Z,10.60
2018-03-11T17:28:18.111Z,13.70
2018-03-11T17:30:45.584Z,10.40
2018-03-11T17:33:13.102Z,10.43
2018-03-11T17:35:40.608Z,11.93
2018-03-11T17:38:08.876Z,12.53
2018-03-11T17:40:36.344Z,11.10
2018-03-11T17:43:03.959Z,9.20
2018-03-11T17:45:32.193Z,9.80
2018-03-11T17:52:24.112Z,11.73
2018-03-11T17:54:51.627Z,7.27
2018-03-11T17:57:19.095Z,6.50
2018-03-11T17:59:46.593Z,5.57
2018-03-11T18:02:14.070Z,4.17
2018-03-11T18:04:42.311Z,4.43
2018-03-11T18:07:10.583Z,4.73
2018-03-11T18:09:38.059Z,6.83
2018-03-11T18:12:05.631Z,5.87
2018-03-11T18:14:33.133Z,8.70
2018-03-11T18:17:00.608Z,6.10
2018-03-11T18:19:28.065Z,8.23
2018-03-11T18:21:56.417Z,7.00
2018-03-11T18:24:23.879Z,6.73
2018-03-11T18:26:52.190Z,8.07
2018-03-11T18:29:20.565Z,6.97
2018-03-11T18:31:48.284Z,5.30
2018-03-11T18:34:15.750Z,5.93
2018-03-11T18:36:44.105Z,5.30
2018-03-11T18:39:11.576Z,5.57
2018-03-11T18:41:39.044Z,10.20
2018-03-11T18:44:06.545Z,4.87
2018-03-11T18:46:34.017Z,5.20
2018-03-11T18:49:01.484Z,4.77
2018-03-11T18:51:29.867Z,6.27
2018-03-11T18:53:57.336Z,4.83
2018-03-11T18:56:24.867Z,4.73
2018-03-11T18:58:53.218Z,6.60
2018-03-11T19:01:20.701Z,9.00
2018-03-11T19:03:48.197Z,7.70
2018-03-11T19:06:15.665Z,4.70
2018-03-11T19:08:43.156Z,4.90
2018-03-11T19:11:10.657Z,5.70
2018-03-11T19:13:38.073Z,6.50
2018-03-11T19:16:06.319Z,6.43
2018-03-11T19:18:33.917Z,5.43
2018-03-11T19:21:01.419Z,6.57
2018-03-11T19:23:28.938Z,5.37
2018-03-11T19:25:56.403Z,6.17
2018-03-11T19:28:23.867Z,5.97
2018-03-11T19:30:51.340Z,6.47
2018-03-11T19:33:18.872Z,10.23
2018-03-11T19:35:46.359Z,8.57
2018-03-11T19:38:14.598Z,8.47
2018-03-11T19:40:42.081Z,7.43
2018-03-11T19:43:09.600Z,6.73
2018-03-11T19:45:37.213Z,6.63
2018-03-11T19:48:05.478Z,7.37
2018-03-11T19:50:32.975Z,8.20
2018-03-11T19:53:00.460Z,7.30
2018-03-11T19:55:27.930Z,9.07
2018-03-11T19:57:55.425Z,11.30
2018-03-11T20:00:22.903Z,11.37
2018-03-11T20:02:50.378Z,7.53
2018-03-11T20:05:18.650Z,7.83
2018-03-11T20:07:46.411Z,7.87
2018-03-11T20:10:13.911Z,6.43
2018-03-11T20:12:41.378Z,7.27
2018-03-11T20:15:09.734Z,5.53
2018-03-11T20:17:37.214Z,5.93
2018-03-11T20:20:04.766Z,6.40
2018-03-11T20:22:32.309Z,14.17
2018-03-11T20:24:59.815Z,18.93
2018-03-11T20:27:27.373Z,16.50
2018-03-11T20:29:54.868Z,10.80
2018-03-11T20:32:22.449Z,5.90
2018-03-11T20:34:49.988Z,5.40
2018-03-11T20:37:17.491Z,6.80
2018-03-11T20:39:45.725Z,9.73
2018-03-11T20:42:13.201Z,5.97
2018-03-11T20:44:40.716Z,6.17
2018-03-11T20:47:08.230Z,5.40
2018-03-11T20:49:35.708Z,5.97
2018-03-11T20:52:03.200Z,7.50
2018-03-11T20:54:30.774Z,6.33
2018-03-11T20:56:58.275Z,6.60
2018-03-11T20:59:25.845Z,7.60
2018-03-11T21:01:53.315Z,7.10
2018-03-11T21:04:20.776Z,7.73
2018-03-11T21:06:49.019Z,6.57
2018-03-11T21:09:16.538Z,7.00
2018-03-11T21:11:44.033Z,7.50
2018-03-11T21:14:11.600Z,6.57
2018-03-11T21:16:39.166Z,6.90
2018-03-11T21:19:06.750Z,6.40
2018-03-11T21:21:34.248Z,8.93
2018-03-11T21:24:01.731Z,7.67
2018-03-11T21:26:29.212Z,11.67
2018-03-11T21:28:56.695Z,12.47
2018-03-11T21:31:24.186Z,14.80
2018-03-11T21:33:51.725Z,14.47
2018-03-11T21:36:19.976Z,9.47
2018-03-11T21:38:47.433Z,10.13
2018-03-11T21:41:14.931Z,10.43
2018-03-11T21:43:42.419Z,11.73
2018-03-11T21:46:09.890Z,13.13
2018-03-11T21:48:37.359Z,12.43
2018-03-11T21:51:04.835Z,10.27
2018-03-11T21:53:32.297Z,10.83
2018-03-11T21:56:00.531Z,10.63
2018-03-11T21:58:27.999Z,10.97
2018-03-11T22:00:56.228Z,12.43
2018-03-11T22:03:23.712Z,10.90
2018-03-11T22:05:51.262Z,15.20
2018-03-11T22:08:19.512Z,15.70
2018-03-11T22:10:47.040Z,13.10
2018-03-11T22:13:14.565Z,9.17
2018-03-11T22:15:42.195Z,10.60
2018-03-11T22:18:09.658Z,11.37
2018-03-11T22:20:37.162Z,11.03
2018-03-11T22:23:04.630Z,10.17
2018-03-11T22:25:32.925Z,8.20
2018-03-11T22:28:00.531Z,11.37
2018-03-11T22:30:28.858Z,9.33
2018-03-11T22:32:56.332Z,11.47
2018-03-11T22:35:24.559Z,9.40
2018-03-11T22:37:52.023Z,8.57
2018-03-11T22:40:20.292Z,12.03
2018-03-11T22:42:47.755Z,9.23
2018-03-11T22:45:15.210Z,11.10
2018-03-11T22:47:42.672Z,9.67
2018-03-11T22:50:10.939Z,9.33
2018-03-11T22:52:38.434Z,8.47
2018-03-11T22:55:05.906Z,10.03
2018-03-11T22:57:33.386Z,10.13
2018-03-11T23:00:00.842Z,12.70
2018-03-11T23:02:28.304Z,10.90
2018-03-11T23:04:56.538Z,12.10
2018-03-11T23:07:23.990Z,9.23
2018-03-11T23:09:52.243Z,10.83
2018-03-11T23:12:19.740Z,9.20
2018-03-11T23:14:47.238Z,8.70
2018-03-11T23:17:14.695Z,12.53
2018-03-11T23:19:42.165Z,9.90
2018-03-11T23:22:09.679Z,9.87
2018-03-11T23:24:37.159Z,10.20
2018-03-11T23:27:04.626Z,10.33
2018-03-11T23:29:32.099Z,18.47
2018-03-11T23:31:59.605Z,20.27
2018-03-11T23:34:27.079Z,18.20
2018-03-11T23:36:54.548Z,16.40
2018-03-11T23:39:22.013Z,14.13
2018-03-11T23:41:49.595Z,12.33
2018-03-11T23:44:17.100Z,14.57
2018-03-11T23:46:44.612Z,14.37
2018-03-11T23:49:12.157Z,14.40
2018-03-11T23:51:40.398Z,9.10
2018-03-11T23:54:07.861Z,6.47
2018-03-11T23:56:35.386Z,6.63
2018-03-11T23:59:02.874Z,7.00
